createdAt,value
2023-03-24T00:00:39.387Z,93.70
2023-03-24T00:03:10.309Z,94.01
2023-03-24T00:06:00.654Z,94.01
2023-03-24T00:07:25.799Z,94.42
2023-03-24T00:09:25.600Z,94.62
2023-03-24T00:11:23.613Z,94.52
2023-03-24T00:17:30.559Z,94.82
2023-03-24T00:22:00.476Z,95.13
2023-03-24T00:24:50.435Z,95.33
2023-03-24T00:27:19.380Z,94.78
2023-03-24T00:29:09.094Z,94.27
2023-03-24T00:32:18.549Z,94.72
2023-03-24T00:34:17.732Z,94.57
2023-03-24T00:36:44.659Z,94.92
2023-03-24T00:40:06.198Z,94.92
2023-03-24T00:41:36.107Z,95.03
2023-03-24T00:43:54.813Z,94.92
2023-03-24T00:46:12.758Z,94.57
2023-03-24T00:50:45.369Z,94.92
2023-03-24T00:57:22.260Z,95.03
2023-03-24T01:00:41.433Z,95.13
2023-03-24T01:05:16.197Z,95.23
2023-03-24T01:06:46.207Z,95.53
2023-03-24T01:08:42.298Z,94.88
2023-03-24T01:10:11.341Z,94.78
2023-03-24T01:12:11.034Z,94.78
2023-03-24T01:14:46.566Z,94.98
2023-03-24T01:18:16.411Z,95.43
2023-03-24T01:19:45.247Z,95.39
2023-03-24T01:24:34.670Z,95.69
2023-03-24T01:30:40.416Z,95.39
2023-03-24T01:32:40.062Z,95.39
2023-03-24T01:34:10.987Z,95.39
2023-03-24T01:36:41.451Z,95.04
2023-03-24T01:39:44.114Z,95.04
2023-03-24T01:44:13.319Z,95.04
2023-03-24T01:47:11.101Z,94.63
2023-03-24T01:49:09.441Z,94.43
2023-03-24T01:59:23.211Z,94.63
2023-03-24T02:01:43.998Z,94.63
2023-03-24T02:04:42.462Z,94.84
2023-03-24T02:06:42.310Z,94.32
2023-03-24T02:09:33.057Z,94.53
2023-03-24T02:11:53.992Z,93.98
2023-03-24T02:14:10.431Z,94.43
2023-03-24T02:15:41.205Z,94.73
2023-03-24T02:17:10.328Z,94.08
2023-03-24T02:19:10.353Z,94.53
2023-03-24T02:22:58.279Z,94.23
2023-03-24T02:25:48.216Z,94.84
2023-03-24T02:27:15.387Z,94.38
2023-03-24T02:28:45.517Z,94.28
2023-03-24T02:31:14.936Z,94.08
2023-03-24T02:35:04.651Z,94.84
2023-03-24T02:37:41.388Z,94.69
2023-03-24T02:39:10.272Z,94.93
2023-03-24T02:41:40.357Z,94.59
2023-03-24T02:43:44.384Z,95.00
2023-03-24T02:47:32.861Z,95.34
2023-03-24T02:49:10.652Z,95.24
2023-03-24T02:51:16.579Z,95.24
2023-03-24T02:56:25.129Z,95.30
2023-03-24T03:00:19.535Z,95.75
2023-03-24T03:01:50.674Z,95.45
2023-03-24T03:03:19.095Z,95.40
2023-03-24T03:04:46.647Z,95.40
2023-03-24T03:10:13.268Z,95.40
2023-03-24T03:12:14.884Z,95.61
2023-03-24T03:17:16.163Z,95.70
2023-03-24T03:19:44.784Z,95.61
2023-03-24T03:22:04.453Z,96.01
2023-03-24T03:24:25.647Z,96.01
2023-03-24T03:25:52.738Z,95.81
2023-03-24T03:27:42.037Z,96.01
2023-03-24T03:35:57.793Z,95.61
2023-03-24T03:41:44.756Z,95.61
2023-03-24T03:45:16.291Z,95.50
2023-03-24T03:47:17.090Z,95.05
2023-03-24T03:52:03.536Z,94.34
2023-03-24T03:54:24.226Z,94.64
2023-03-24T03:57:20.525Z,94.89
2023-03-24T03:58:51.840Z,95.00
2023-03-24T04:01:19.091Z,94.54
2023-03-24T04:03:28.172Z,94.64
2023-03-24T04:07:14.643Z,94.54
2023-03-24T04:09:25.067Z,94.54
2023-03-24T04:12:49.091Z,94.34
2023-03-24T04:16:40.217Z,94.59
2023-03-24T04:18:09.673Z,94.28
2023-03-24T04:19:40.602Z,93.67
2023-03-24T04:24:20.418Z,92.45
2023-03-24T04:27:31.732Z,91.53
2023-03-24T04:31:15.864Z,89.85
2023-03-24T04:34:58.222Z,89.14
2023-03-24T04:36:50.844Z,88.73
2023-03-24T04:38:21.108Z,88.67
2023-03-24T04:41:17.844Z,88.77
2023-03-24T04:43:38.976Z,88.87
2023-03-24T04:45:10.467Z,88.98
2023-03-24T04:54:46.067Z,89.16
2023-03-24T04:59:25.973Z,88.85
2023-03-24T05:00:23.990Z,88.75
2023-03-24T05:01:23.302Z,88.55
2023-03-24T05:02:23.305Z,88.96
2023-03-24T05:05:05.889Z,88.85
2023-03-24T05:07:03.892Z,89.16
2023-03-24T05:11:16.335Z,89.61
2023-03-24T05:14:23.012Z,89.61
2023-03-24T05:16:27.143Z,89.75
2023-03-24T05:21:34.598Z,89.34
2023-03-24T05:24:10.739Z,88.06
2023-03-24T05:26:33.274Z,88.61
2023-03-24T05:29:30.958Z,87.65
2023-03-24T05:32:58.119Z,86.98
2023-03-24T05:35:17.140Z,87.04
2023-03-24T05:37:35.949Z,87.02
2023-03-24T05:41:43.016Z,85.55
2023-03-24T05:46:44.132Z,85.16
2023-03-24T05:53:57.934Z,85.00
2023-03-24T05:55:59.366Z,84.80
2023-03-24T05:58:20.301Z,84.94
2023-03-24T06:00:46.432Z,85.75
2023-03-24T06:02:17.701Z,85.75
2023-03-24T06:05:16.428Z,86.26
2023-03-24T06:07:35.529Z,85.92
2023-03-24T06:13:16.087Z,85.71
2023-03-24T06:16:14.941Z,85.82
2023-03-24T06:18:34.684Z,86.02
2023-03-24T06:22:08.495Z,84.80
2023-03-24T06:25:54.358Z,84.63
2023-03-24T06:28:31.276Z,83.92
2023-03-24T06:33:20.214Z,82.69
2023-03-24T06:40:08.449Z,83.51
2023-03-24T06:42:06.372Z,83.20
2023-03-24T06:45:15.024Z,83.30
2023-03-24T06:48:16.166Z,83.78
2023-03-24T06:50:03.042Z,82.75
2023-03-24T06:51:51.405Z,82.86
2023-03-24T06:53:20.325Z,82.96
2023-03-24T06:55:22.336Z,82.61
2023-03-24T07:00:24.223Z,82.86
2023-03-24T07:05:24.641Z,82.47
2023-03-24T07:09:21.763Z,82.92
2023-03-24T07:15:20.925Z,82.41
2023-03-24T07:17:10.296Z,81.94
2023-03-24T07:19:09.244Z,82.31
2023-03-24T07:21:33.646Z,82.31
2023-03-24T07:23:01.716Z,82.17
2023-03-24T07:24:31.963Z,82.10
2023-03-24T07:27:16.084Z,81.49
2023-03-24T07:31:07.163Z,81.29
2023-03-24T07:34:07.369Z,81.25
2023-03-24T07:37:05.983Z,81.29
2023-03-24T07:39:11.332Z,81.15
2023-03-24T07:41:14.301Z,80.27
2023-03-24T07:42:39.294Z,81.25
2023-03-24T07:47:05.198Z,80.23
2023-03-24T07:50:56.548Z,79.58
2023-03-24T07:53:30.325Z,79.68
2023-03-24T07:55:30.492Z,79.17
2023-03-24T07:57:04.494Z,79.38
2023-03-24T07:58:35.523Z,78.97
2023-03-24T08:03:41.114Z,78.42
2023-03-24T08:05:41.348Z,78.59
2023-03-24T08:14:07.650Z,77.74
2023-03-24T08:22:08.192Z,76.52
2023-03-24T08:23:56.847Z,75.91
2023-03-24T08:26:53.598Z,75.87
2023-03-24T08:28:56.655Z,75.30
2023-03-24T08:30:28.702Z,75.46
2023-03-24T08:38:22.698Z,74.76
2023-03-24T08:40:29.210Z,74.01
2023-03-24T08:43:09.065Z,72.65
2023-03-24T08:48:08.511Z,72.01
2023-03-24T08:52:56.843Z,70.62
2023-03-24T08:54:24.116Z,69.88
2023-03-24T08:56:24.073Z,68.08
2023-03-24T08:57:54.706Z,67.03
2023-03-24T09:00:26.266Z,67.51
2023-03-24T09:04:03.498Z,68.15
2023-03-24T09:07:59.178Z,67.98
2023-03-24T09:10:02.026Z,68.42
2023-03-24T09:11:31.971Z,69.00
2023-03-24T09:13:31.165Z,68.52
2023-03-24T09:15:28.713Z,69.26
2023-03-24T09:20:01.488Z,68.76
2023-03-24T09:21:24.987Z,69.23
2023-03-24T09:26:54.681Z,66.83
2023-03-24T09:30:11.401Z,65.76
2023-03-24T09:33:17.636Z,65.96
2023-03-24T09:35:52.009Z,64.99
2023-03-24T09:45:35.496Z,67.14
2023-03-24T09:47:08.169Z,66.63
2023-03-24T09:49:05.807Z,67.00
2023-03-24T09:50:42.003Z,66.70
2023-03-24T09:52:43.164Z,65.86
2023-03-24T09:54:21.401Z,66.77
2023-03-24T09:57:15.629Z,65.72
2023-03-24T10:02:10.671Z,65.36
2023-03-24T10:03:37.667Z,65.15
2023-03-24T10:05:26.817Z,63.73
2023-03-24T10:06:57.563Z,63.83
2023-03-24T10:09:16.699Z,64.30
2023-03-24T10:17:56.830Z,64.50
2023-03-24T10:19:43.988Z,65.95
2023-03-24T10:23:24.505Z,66.46
2023-03-24T10:24:55.885Z,66.46
2023-03-24T10:26:57.044Z,66.16
2023-03-24T10:27:56.977Z,66.08
2023-03-24T10:29:17.993Z,66.29
2023-03-24T10:34:10.984Z,63.38
2023-03-24T10:36:41.462Z,58.58
2023-03-24T10:39:26.108Z,53.25
2023-03-24T10:42:02.087Z,49.07
2023-03-24T10:46:31.541Z,47.24
2023-03-24T10:48:21.172Z,47.85
2023-03-24T10:50:46.291Z,46.46
2023-03-24T10:52:35.468Z,43.97
2023-03-24T10:54:33.776Z,45.51
2023-03-24T10:57:41.352Z,44.94
2023-03-24T11:02:07.249Z,43.01
2023-03-24T11:04:57.577Z,41.89
2023-03-24T11:06:25.678Z,41.75
2023-03-24T11:16:37.892Z,42.15
2023-03-24T11:18:11.199Z,41.44
2023-03-24T11:21:39.730Z,42.79
2023-03-24T11:23:08.574Z,43.21
2023-03-24T11:26:17.937Z,40.50
2023-03-24T11:29:47.444Z,38.15
2023-03-24T11:33:17.793Z,38.32
2023-03-24T11:34:46.974Z,37.90
2023-03-24T11:39:43.251Z,36.39
2023-03-24T11:41:59.016Z,35.30
2023-03-24T11:44:50.490Z,34.84
2023-03-24T11:47:39.399Z,35.27
2023-03-24T11:51:14.331Z,33.23
2023-03-24T11:53:02.301Z,35.32
2023-03-24T11:56:50.770Z,42.69
2023-03-24T11:59:29.889Z,45.81
2023-03-24T12:02:20.020Z,47.61
2023-03-24T12:04:54.577Z,48.82
2023-03-24T12:09:13.894Z,51.91
2023-03-24T12:13:37.951Z,60.60
2023-03-24T12:16:31.990Z,64.04
2023-03-24T12:21:00.953Z,68.16
2023-03-24T12:24:49.272Z,68.63
2023-03-24T12:36:25.214Z,64.67
2023-03-24T12:45:24.071Z,63.57
2023-03-24T12:49:51.310Z,61.57
2023-03-24T12:51:49.736Z,63.78
2023-03-24T12:53:17.179Z,65.33
2023-03-24T12:55:15.589Z,65.64
2023-03-24T12:56:44.331Z,66.35
2023-03-24T12:58:15.921Z,66.64
2023-03-24T12:59:44.045Z,65.94
2023-03-24T13:01:14.004Z,65.97
2023-03-24T13:04:53.660Z,66.61
2023-03-24T13:06:24.660Z,66.03
2023-03-24T13:09:00.321Z,68.83
2023-03-24T13:10:27.540Z,69.47
2023-03-24T13:11:58.400Z,70.15
2023-03-24T13:19:34.781Z,76.34
2023-03-24T13:21:05.482Z,77.73
2023-03-24T13:25:50.710Z,77.43
2023-03-24T13:27:51.165Z,77.56
2023-03-24T13:31:55.882Z,78.48
2023-03-24T13:34:43.544Z,79.02
2023-03-24T13:38:29.694Z,78.15
2023-03-24T13:41:00.492Z,78.72
2023-03-24T13:43:59.442Z,79.02
2023-03-24T13:47:24.022Z,79.23
2023-03-24T13:48:53.016Z,79.53
2023-03-24T13:51:51.800Z,80.62
2023-03-24T13:56:12.902Z,70.42
2023-03-24T14:02:50.476Z,61.79
2023-03-24T14:05:37.284Z,62.45
2023-03-24T14:08:55.905Z,67.29
2023-03-24T14:11:03.545Z,68.33
2023-03-24T14:13:33.478Z,72.01
2023-03-24T14:15:34.215Z,74.17
2023-03-24T14:17:22.016Z,75.29
2023-03-24T14:23:00.166Z,76.85
2023-03-24T14:25:49.110Z,76.14
2023-03-24T14:29:31.273Z,76.61
2023-03-24T14:31:19.949Z,77.97
2023-03-24T14:36:59.529Z,78.95
2023-03-24T14:43:32.670Z,80.35
2023-03-24T14:46:42.378Z,80.85
2023-03-24T14:49:02.387Z,80.96
2023-03-24T14:54:04.021Z,80.72
2023-03-24T14:57:23.315Z,81.46
2023-03-24T14:59:14.329Z,81.98
2023-03-24T15:09:45.529Z,84.03
2023-03-24T15:12:34.099Z,83.92
2023-03-24T15:15:41.883Z,83.82
2023-03-24T15:21:39.876Z,83.82
2023-03-24T15:23:55.785Z,84.23
2023-03-24T15:26:34.300Z,84.47
2023-03-24T15:29:38.206Z,84.06
2023-03-24T15:32:49.348Z,84.06
2023-03-24T15:35:43.592Z,83.62
2023-03-24T15:40:14.766Z,82.32
2023-03-24T15:44:44.406Z,81.60
2023-03-24T15:46:12.972Z,81.81
2023-03-24T15:48:35.197Z,80.18
2023-03-24T15:51:22.597Z,80.38
2023-03-24T15:56:40.842Z,79.70
2023-03-24T16:03:04.729Z,78.55
2023-03-24T16:05:53.550Z,78.89
2023-03-24T16:07:43.256Z,78.89
2023-03-24T16:10:12.926Z,79.03
2023-03-24T16:12:05.840Z,80.52
2023-03-24T16:14:02.814Z,80.42
2023-03-24T16:16:41.326Z,79.10
2023-03-24T16:18:30.031Z,79.50
2023-03-24T16:23:45.534Z,79.54
2023-03-24T16:26:08.034Z,79.61
2023-03-24T16:28:26.379Z,79.10
2023-03-24T16:30:13.507Z,79.20
2023-03-24T16:34:34.547Z,78.89
2023-03-24T16:36:30.531Z,79.20
2023-03-24T16:41:58.869Z,80.09
2023-03-24T16:44:17.755Z,79.95
2023-03-24T16:50:48.186Z,80.16
2023-03-24T16:55:57.516Z,79.75
2023-03-24T17:01:55.680Z,79.54
2023-03-24T17:07:05.509Z,80.26
2023-03-24T17:09:13.831Z,79.91
2023-03-24T17:09:52.800Z,79.44
2023-03-24T17:10:52.814Z,80.09
2023-03-24T17:11:52.804Z,80.60
2023-03-24T17:15:24.447Z,81.41
2023-03-24T17:18:52.366Z,81.70
2023-03-24T17:23:12.118Z,81.56
2023-03-24T17:24:41.866Z,81.76
2023-03-24T17:26:40.735Z,81.76
2023-03-24T17:28:56.731Z,82.41
2023-03-24T17:38:09.462Z,82.61
2023-03-24T17:39:40.601Z,82.10
2023-03-24T17:44:41.105Z,82.61
2023-03-24T17:47:33.928Z,83.26
2023-03-24T17:50:52.752Z,83.37
2023-03-24T17:56:59.602Z,84.22
2023-03-24T17:58:29.558Z,84.53
2023-03-24T18:03:08.730Z,83.92
2023-03-24T18:04:44.217Z,83.81
2023-03-24T18:07:06.206Z,85.08
2023-03-24T18:12:30.856Z,84.94
2023-03-24T18:14:57.826Z,85.28
2023-03-24T18:17:42.626Z,85.79
2023-03-24T18:19:11.515Z,85.08
2023-03-24T18:20:40.475Z,85.18
2023-03-24T18:22:17.359Z,85.38
2023-03-24T18:24:46.467Z,85.22
2023-03-24T18:26:14.311Z,85.22
2023-03-24T18:28:38.424Z,85.83
2023-03-24T18:30:10.372Z,85.53
2023-03-24T18:31:42.684Z,85.53
2023-03-24T18:33:13.517Z,85.53
2023-03-24T18:34:44.529Z,85.53
2023-03-24T18:42:52.242Z,86.44
2023-03-24T18:50:30.151Z,87.06
2023-03-24T18:57:32.801Z,88.23
2023-03-24T18:59:33.701Z,87.71
2023-03-24T19:02:01.555Z,88.08
2023-03-24T19:03:28.905Z,87.57
2023-03-24T19:05:56.923Z,87.67
2023-03-24T19:07:26.830Z,88.02
2023-03-24T19:09:27.385Z,87.57
2023-03-24T19:16:14.999Z,86.35
2023-03-24T19:18:31.176Z,85.94
2023-03-24T19:26:20.138Z,86.14
2023-03-24T19:28:18.892Z,85.83
2023-03-24T19:30:16.327Z,86.14
2023-03-24T19:41:25.410Z,85.49
2023-03-24T19:49:31.828Z,87.67
2023-03-24T19:51:31.057Z,88.39
2023-03-24T19:54:42.726Z,88.29
2023-03-24T19:58:02.489Z,88.70
2023-03-24T20:00:26.304Z,88.39
2023-03-24T20:07:41.292Z,88.49
2023-03-24T20:16:44.788Z,88.74
2023-03-24T20:19:34.638Z,88.59
2023-03-24T20:25:51.988Z,87.82
2023-03-24T20:30:15.570Z,86.65
2023-03-24T20:34:21.736Z,85.94
2023-03-24T20:38:45.889Z,86.35
2023-03-24T20:40:14.763Z,86.14
2023-03-24T20:42:05.247Z,86.04
2023-03-24T20:46:22.172Z,86.18
2023-03-24T20:47:50.158Z,86.49
2023-03-24T20:50:19.757Z,85.94
2023-03-24T20:51:46.697Z,86.29
2023-03-24T20:53:15.586Z,86.29
2023-03-24T20:54:44.477Z,86.79
2023-03-24T20:56:14.399Z,87.10
2023-03-24T20:57:44.404Z,87.00
2023-03-24T21:02:59.342Z,87.76
2023-03-24T21:04:28.957Z,87.96
2023-03-24T21:09:16.755Z,88.37
2023-03-24T21:16:52.146Z,89.18
2023-03-24T21:18:20.143Z,88.78
2023-03-24T21:20:09.810Z,88.68
2023-03-24T21:21:39.755Z,88.68
2023-03-24T21:23:09.657Z,88.37
2023-03-24T21:26:04.413Z,88.68
2023-03-24T21:27:33.314Z,88.57
2023-03-24T21:30:01.128Z,87.96
2023-03-24T21:32:58.016Z,88.31
2023-03-24T21:37:35.765Z,89.53
2023-03-24T21:41:01.934Z,88.47
2023-03-24T21:43:23.787Z,88.37
2023-03-24T21:47:54.425Z,88.92
2023-03-24T21:53:30.523Z,88.17
2023-03-24T21:56:45.115Z,87.96
2023-03-24T21:59:13.692Z,87.65
2023-03-24T22:02:10.647Z,87.24
2023-03-24T22:04:39.788Z,87.45
2023-03-24T22:06:08.720Z,87.59
2023-03-24T22:09:09.258Z,87.49
2023-03-24T22:12:11.937Z,86.53
2023-03-24T22:13:42.749Z,86.32
2023-03-24T22:15:40.331Z,86.32
2023-03-24T22:18:09.653Z,86.05
2023-03-24T22:20:36.133Z,86.02
2023-03-24T22:22:05.054Z,85.75
2023-03-24T22:26:29.884Z,86.26
2023-03-24T22:29:57.416Z,85.96
2023-03-24T22:34:11.109Z,86.10
2023-03-24T22:35:40.038Z,85.55
2023-03-24T22:37:38.036Z,85.14
2023-03-24T22:45:18.418Z,84.83
2023-03-24T22:46:55.441Z,84.63
2023-03-24T22:57:09.769Z,84.31
2023-03-24T23:01:29.710Z,84.42
2023-03-24T23:09:05.650Z,84.72
2023-03-24T23:11:36.474Z,84.31
2023-03-24T23:15:01.945Z,83.87
2023-03-24T23:20:08.284Z,84.31
2023-03-24T23:21:37.131Z,83.91
2023-03-24T23:24:14.772Z,84.31
2023-03-24T23:25:43.628Z,84.31
2023-03-24T23:27:45.469Z,84.31
2023-03-24T23:30:20.562Z,84.52
2023-03-24T23:34:11.381Z,84.72
2023-03-24T23:35:39.885Z,84.22
2023-03-24T23:37:34.282Z,84.42
2023-03-24T23:42:03.889Z,84.22
2023-03-24T23:44:34.545Z,84.31
2023-03-24T23:46:21.871Z,84.07
2023-03-24T23:50:39.520Z,84.22
2023-03-24T23:57:48.558Z,83.81
2023-03-24T23:59:37.375Z,83.70
